Time;durP1;ratioP1;P1;durP2;ratioP2;P2;SDS_P1;SDS_P2;PMS_P1;PMS_P2;Temp;Humidity;BMP_temperature;BMP_pressure;BME280_temperature;BME280_humidity;BME280_pressure;Samples;Min_cycle;Max_cycle;Signal;HPM_P1;HPM_P2
2021/08/13 00:00:45;;;;;;;0.68;0.47;;;;;;;11.93;57.11;99189.88;6184594;23;20438;-67
2021/08/13 00:03:13;;;;;;;0.60;0.60;;;;;;;11.89;57.31;99196.88;6184686;23;20017;-71
2021/08/13 00:05:39;;;;;;;0.63;0.60;;;;;;;11.86;57.12;99195.44;6184217;23;20396;-67
2021/08/13 00:08:04;;;;;;;1.13;0.95;;;;;;;11.83;57.21;99192.34;6184726;23;20033;-66
2021/08/13 00:10:30;;;;;;;0.40;0.40;;;;;;;11.80;57.44;99196.38;6184468;23;20019;-66
2021/08/13 00:12:58;;;;;;;0.40;0.40;;;;;;;11.80;57.36;99201.06;6184289;23;20016;-66
2021/08/13 00:15:24;;;;;;;0.45;0.45;;;;;;;11.78;57.77;99195.78;6185023;23;20013;-67
2021/08/13 00:17:50;;;;;;;0.25;0.25;;;;;;;11.75;57.47;99204.50;6184424;23;20013;-65
2021/08/13 00:20:16;;;;;;;0.40;0.40;;;;;;;11.71;57.59;99201.38;6184222;23;20013;-64
2021/08/13 00:22:42;;;;;;;0.30;0.30;;;;;;;11.70;57.85;99204.34;6184254;23;20449;-67
2021/08/13 00:25:08;;;;;;;0.20;0.20;;;;;;;11.66;57.93;99205.88;6184412;23;20027;-67
2021/08/13 00:27:34;;;;;;;0.40;0.40;;;;;;;11.61;57.96;99198.34;6184713;23;20096;-66
2021/08/13 00:29:59;;;;;;;0.20;0.20;;;;;;;11.62;57.86;99201.94;6184146;23;20403;-66
2021/08/13 00:32:25;;;;;;;0.28;0.28;;;;;;;11.60;57.76;99198.56;6184411;23;20071;-65
2021/08/13 00:34:51;;;;;;;0.63;0.63;;;;;;;11.60;57.92;99195.81;6157366;23;20354;-66
2021/08/13 00:37:16;;;;;;;0.63;0.63;;;;;;;11.63;57.73;99203.59;6184176;23;20011;-67
2021/08/13 00:39:42;;;;;;;0.30;0.30;;;;;;;11.65;57.85;99198.72;6184224;23;20013;-66
2021/08/13 00:42:08;;;;;;;0.55;0.43;;;;;;;11.68;57.67;99198.25;6184153;23;20033;-65
2021/08/13 00:44:34;;;;;;;0.28;0.28;;;;;;;11.70;57.43;99193.34;6184201;23;20462;-66
2021/08/13 00:46:59;;;;;;;0.50;0.50;;;;;;;11.72;57.42;99188.47;6184484;23;20020;-66
2021/08/13 00:49:25;;;;;;;2.17;1.00;;;;;;;11.73;57.53;99195.63;6183901;23;20445;-65
2021/08/13 00:51:51;;;;;;;0.20;0.20;;;;;;;11.71;57.56;99198.63;6184310;23;20009;-66
2021/08/13 00:54:19;;;;;;;0.40;0.40;;;;;;;11.76;57.47;99184.16;6184208;23;20009;-64
2021/08/13 00:56:45;;;;;;;0.65;0.40;;;;;;;11.81;57.54;99187.06;6184105;23;20402;-66
2021/08/13 00:59:11;;;;;;;0.20;0.20;;;;;;;11.83;57.27;99201.41;6184222;23;20024;-64
2021/08/13 01:01:37;;;;;;;0.30;0.30;;;;;;;11.88;57.23;99193.31;6184251;23;19997;-64
2021/08/13 01:04:03;;;;;;;0.43;0.43;;;;;;;11.92;57.05;99190.91;6183957;23;20012;-65
2021/08/13 01:06:30;;;;;;;0.40;0.40;;;;;;;11.92;57.12;99186.28;6183617;23;20016;-63
2021/08/13 01:08:56;;;;;;;0.20;0.20;;;;;;;11.96;57.13;99192.16;6183996;23;20023;-64
2021/08/13 01:11:44;;;;;;;1.25;0.73;;;;;;;12.04;57.28;99191.84;6184238;23;20037;-64
2021/08/13 01:14:32;;;;;;;0.55;0.43;;;;;;;12.32;56.44;99184.81;6184721;23;20017;-64
2021/08/13 01:16:59;;;;;;;0.50;0.50;;;;;;;13.38;54.31;99180.34;6184252;23;20099;-65
2021/08/13 01:19:43;;;;;;;0.30;0.30;;;;;;;15.54;49.75;99181.13;6184214;23;20013;-64
2021/08/13 01:22:16;;;;;;;0.88;0.80;;;;;;;17.51;46.02;99177.72;6184202;23;20085;-64
2021/08/13 01:24:46;;;;;;;0.28;0.28;;;;;;;19.31;43.41;99176.16;6184558;23;20067;-66
2021/08/13 01:27:16;;;;;;;0.20;0.20;;;;;;;20.93;41.29;99177.34;6185982;23;20433;-64
2021/08/13 01:29:53;;;;;;;0.40;0.40;;;;;;;22.39;39.65;99178.88;6185831;23;20013;-65
2021/08/13 01:32:28;;;;;;;0.32;0.30;;;;;;;23.61;38.50;99176.09;6186093;23;20442;-64
2021/08/13 01:35:03;;;;;;;0.40;0.40;;;;;;;24.56;37.68;99174.50;6185543;23;20012;-67
2021/08/13 01:37:30;;;;;;;0.10;0.10;;;;;;;25.46;37.03;99180.00;6186003;23;20016;-67
2021/08/13 01:39:59;;;;;;;2.38;0.22;;;;;;;26.30;36.19;99174.41;6186022;23;20013;-69
2021/08/13 01:42:28;;;;;;;0.10;0.10;;;;;;;27.01;35.72;99170.34;6185570;23;20013;-66
2021/08/13 01:44:56;;;;;;;0.20;0.20;;;;;;;27.75;35.53;99165.41;6186076;23;20013;-65
2021/08/13 01:47:22;;;;;;;0.20;0.20;;;;;;;28.36;35.10;99160.47;6186186;23;20037;-68
2021/08/13 01:49:49;;;;;;;0.20;0.20;;;;;;;28.75;35.12;99153.50;6185986;23;20009;-66
2021/08/13 01:52:17;;;;;;;1.38;0.55;;;;;;;29.19;34.78;99147.34;6185787;23;20531;-65
2021/08/13 01:54:44;;;;;;;1.10;0.63;;;;;;;29.56;34.78;99150.22;6185841;23;20364;-66
2021/08/13 01:57:11;;;;;;;0.10;0.10;;;;;;;30.16;34.27;99155.34;6185729;23;20009;-71
2021/08/13 01:59:37;;;;;;;0.10;0.10;;;;;;;30.64;33.98;99155.53;6186535;23;20460;-68
2021/08/13 02:02:03;;;;;;;0.17;0.17;;;;;;;31.13;33.67;99151.66;6186079;23;20091;-66
2021/08/13 02:04:29;;;;;;;0.10;0.10;;;;;;;31.49;33.49;99147.69;6185247;23;20512;-68
2021/08/13 02:06:56;;;;;;;0.40;0.40;;;;;;;31.93;32.75;99155.25;6185445;23;20435;-67
2021/08/13 02:09:23;;;;;;;0.17;0.17;;;;;;;32.41;32.62;99141.72;6185512;23;20464;-69
2021/08/13 02:11:49;;;;;;;0.20;0.20;;;;;;;32.88;32.13;99153.22;6185651;23;20036;-66
2021/08/13 02:14:16;;;;;;;0.10;0.10;;;;;;;33.37;31.96;99143.16;6186505;23;20430;-66
2021/08/13 02:16:48;;;;;;;0.20;0.20;;;;;;;33.57;31.92;99139.03;6185788;23;20016;-66
2021/08/13 02:19:20;;;;;;;0.10;0.10;;;;;;;33.91;31.40;99141.16;6185311;23;20370;-66
2021/08/13 02:21:47;;;;;;;0.10;0.10;;;;;;;34.36;31.31;99137.34;6185505;23;20438;-66
2021/08/13 02:24:17;;;;;;;0.10;0.10;;;;;;;34.74;30.73;99143.09;6186284;23;20079;-67
2021/08/13 02:26:44;;;;;;;0.10;0.10;;;;;;;35.21;30.63;99143.59;6185480;23;20009;-66
2021/08/13 02:29:10;;;;;;;0.10;0.10;;;;;;;35.72;30.10;99150.53;6185221;23;20067;-66
2021/08/13 02:31:36;;;;;;;0.55;0.30;;;;;;;36.14;29.62;99152.06;6185392;23;20013;-66
2021/08/13 02:34:02;;;;;;;0.22;0.20;;;;;;;36.64;29.23;99160.91;6185369;23;20068;-67
2021/08/13 02:36:44;;;;;;;0.30;0.30;;;;;;;37.09;28.70;99148.34;6184544;23;20389;-65
2021/08/13 02:39:18;;;;;;;0.10;0.10;;;;;;;37.44;28.73;99143.91;6185755;23;20040;-65
2021/08/13 02:41:46;;;;;;;0.20;0.20;;;;;;;37.79;28.38;99145.97;6185726;23;20009;-66
2021/08/13 02:44:13;;;;;;;0.45;0.30;;;;;;;37.46;29.04;99145.16;6185326;23;20053;-66
2021/08/13 02:46:53;;;;;;;2.80;0.82;;;;;;;36.56;30.15;99146.97;6185410;23;20009;-66
2021/08/13 02:49:21;;;;;;;0.10;0.10;;;;;;;34.69;32.48;99143.47;6185453;23;20465;-67
2021/08/13 02:51:52;;;;;;;0.25;0.25;;;;;;;33.73;33.64;99144.53;6185234;23;20013;-64
2021/08/13 02:54:24;;;;;;;1.08;0.50;;;;;;;32.63;35.45;99147.84;6159070;23;20450;-65
2021/08/13 02:56:53;;;;;;;0.13;0.13;;;;;;;31.55;36.44;99149.09;6185327;23;20037;-66
2021/08/13 02:59:21;;;;;;;0.10;0.10;;;;;;;30.10;38.52;99151.94;6158764;23;20017;-66
2021/08/13 03:01:49;;;;;;;0.20;0.20;;;;;;;29.24;39.40;99147.16;6185244;23;20017;-66
2021/08/13 03:04:16;;;;;;;0.55;0.52;;;;;;;28.88;39.26;99148.69;6184480;23;20052;-66
2021/08/13 03:06:45;;;;;;;0.10;0.10;;;;;;;29.95;37.26;99145.03;6185167;23;20009;-65
2021/08/13 03:09:11;;;;;;;0.40;0.40;;;;;;;31.71;34.32;99151.09;6185428;23;20008;-66
2021/08/13 03:11:39;;;;;;;0.20;0.20;;;;;;;33.52;31.94;99142.19;6185354;23;20013;-66
2021/08/13 03:14:08;;;;;;;1.20;0.30;;;;;;;35.22;29.66;99146.06;6185287;23;20021;-65
2021/08/13 03:16:34;;;;;;;0.28;0.28;;;;;;;36.32;28.56;99149.34;6185287;23;20386;-65
2021/08/13 03:19:01;;;;;;;0.10;0.10;;;;;;;37.18;27.93;99141.03;6185030;23;20072;-65
2021/08/13 03:21:28;;;;;;;0.50;0.47;;;;;;;38.40;26.39;99147.88;6185003;23;20005;-65
2021/08/13 03:23:55;;;;;;;1.23;0.70;;;;;;;39.99;25.20;99141.88;6184882;23;20052;-65
2021/08/13 03:26:21;;;;;;;0.10;0.10;;;;;;;41.33;24.40;99144.66;6185133;23;20013;-65
2021/08/13 03:28:47;;;;;;;0.17;0.17;;;;;;;41.71;24.18;99143.59;6184815;23;20036;-67
2021/08/13 03:31:34;;;;;;;0.20;0.20;;;;;;;41.91;24.16;99139.97;6185179;23;20453;-66
2021/08/13 03:34:01;;;;;;;0.10;0.10;;;;;;;41.65;24.68;99145.34;6184859;23;20024;-65
2021/08/13 03:36:28;;;;;;;1.65;0.40;;;;;;;41.35;25.18;99138.47;6184664;23;20016;-66
2021/08/13 03:38:54;;;;;;;0.15;0.15;;;;;;;40.99;25.88;99147.63;6184765;23;20013;-66
2021/08/13 03:41:20;;;;;;;0.30;0.30;;;;;;;41.07;25.72;99152.03;6185516;23;20016;-67
2021/08/13 03:43:46;;;;;;;0.20;0.20;;;;;;;41.15;25.72;99141.22;6184514;23;20029;-66
2021/08/13 03:46:12;;;;;;;0.10;0.10;;;;;;;41.46;25.92;99141.16;6184546;23;20020;-67
2021/08/13 03:48:37;;;;;;;0.93;0.45;;;;;;;41.66;25.63;99146.97;6184439;23;20374;-67
2021/08/13 03:51:03;;;;;;;0.10;0.10;;;;;;;41.69;25.53;99143.22;6184991;23;20016;-66
2021/08/13 03:53:29;;;;;;;0.10;0.10;;;;;;;41.56;25.47;99145.09;6184975;23;20013;-68
2021/08/13 03:55:55;;;;;;;0.17;0.17;;;;;;;41.39;25.81;99150.75;6184859;23;20677;-66
2021/08/13 03:58:20;;;;;;;0.10;0.10;;;;;;;41.27;25.92;99154.19;6185062;23;20020;-66
2021/08/13 04:00:46;;;;;;;0.10;0.10;;;;;;;41.21;25.80;99147.31;6184448;23;20009;-66
2021/08/13 04:03:12;;;;;;;0.10;0.10;;;;;;;41.42;25.70;99144.09;6184848;23;20016;-67
2021/08/13 04:05:37;;;;;;;1.02;0.15;;;;;;;41.47;25.45;99137.81;6184310;23;20009;-65
2021/08/13 04:08:03;;;;;;;0.10;0.10;;;;;;;41.67;25.17;99128.44;6158335;23;20446;-66
2021/08/13 04:10:29;;;;;;;0.20;0.20;;;;;;;42.13;24.93;99140.38;6184581;23;20009;-65
2021/08/13 04:12:55;;;;;;;2.35;0.38;;;;;;;42.48;24.49;99132.22;6184786;23;20516;-66
2021/08/13 04:15:21;;;;;;;0.20;0.20;;;;;;;42.77;24.46;99123.78;6185094;23;20419;-66
2021/08/13 04:17:48;;;;;;;0.10;0.10;;;;;;;42.93;24.02;99128.78;6184481;23;20016;-66
2021/08/13 04:20:14;;;;;;;0.20;0.20;;;;;;;43.16;24.10;99119.19;6184405;23;20075;-67
2021/08/13 04:22:40;;;;;;;0.32;0.32;;;;;;;43.58;23.42;99133.84;6182801;23;20020;-67
2021/08/13 04:25:06;;;;;;;0.10;0.10;;;;;;;43.90;23.44;99125.56;6182996;23;20012;-66
2021/08/13 04:27:32;;;;;;;0.20;0.20;;;;;;;44.09;23.39;99120.91;6183023;23;20323;-67
2021/08/13 04:29:57;;;;;;;0.20;0.20;;;;;;;44.20;22.98;99129.28;6183083;23;20093;-66
2021/08/13 04:32:23;;;;;;;0.20;0.20;;;;;;;44.11;22.99;99124.16;6183205;23;20096;-67
2021/08/13 04:34:49;;;;;;;0.10;0.10;;;;;;;43.81;23.20;99117.53;6182522;23;20009;-66
2021/08/13 04:37:14;;;;;;;0.30;0.30;;;;;;;43.71;23.84;99115.72;6182976;23;20021;-65
2021/08/13 04:39:40;;;;;;;0.20;0.20;;;;;;;43.61;23.35;99123.41;6183102;23;20067;-66
2021/08/13 04:42:06;;;;;;;0.10;0.10;;;;;;;43.72;23.50;99108.69;6182839;23;20016;-66
2021/08/13 04:44:32;;;;;;;0.43;0.20;;;;;;;43.96;23.52;99099.81;6182794;23;20028;-65
2021/08/13 04:46:59;;;;;;;0.20;0.20;;;;;;;44.04;23.09;99104.94;6182874;23;20012;-66
2021/08/13 04:49:25;;;;;;;0.10;0.10;;;;;;;44.13;22.91;99100.53;6182741;23;20040;-66
2021/08/13 04:51:51;;;;;;;0.30;0.22;;;;;;;44.16;22.84;99106.25;6182983;23;20049;-66
2021/08/13 04:54:17;;;;;;;0.10;0.10;;;;;;;43.93;22.90;99096.53;6182640;23;20346;-66
2021/08/13 04:56:43;;;;;;;0.10;0.10;;;;;;;43.82;22.96;99096.00;6182603;23;20020;-66
2021/08/13 04:59:08;;;;;;;0.20;0.20;;;;;;;43.89;22.85;99095.03;6183486;23;20023;-66
2021/08/13 05:01:34;;;;;;;0.32;0.30;;;;;;;43.93;22.91;99084.16;6184916;23;20075;-65
2021/08/13 05:04:00;;;;;;;0.30;0.30;;;;;;;43.68;22.66;99084.84;6184924;23;20040;-67
2021/08/13 05:06:26;;;;;;;0.13;0.13;;;;;;;43.27;23.44;99087.13;6184403;23;20017;-66
2021/08/13 05:08:51;;;;;;;0.10;0.10;;;;;;;42.03;24.09;99091.09;6185087;23;20107;-66
2021/08/13 05:11:17;;;;;;;0.10;0.10;;;;;;;39.07;27.19;99076.16;6184748;23;20009;-67
2021/08/13 05:13:43;;;;;;;0.10;0.10;;;;;;;35.89;30.42;99089.88;6184851;23;20009;-66
2021/08/13 05:16:08;;;;;;;0.82;0.45;;;;;;;33.46;33.04;99083.94;6181803;23;20079;-66
2021/08/13 05:18:35;;;;;;;0.30;0.20;;;;;;;31.50;35.50;99077.59;6184844;23;20009;-65
2021/08/13 05:21:01;;;;;;;0.20;0.20;;;;;;;29.84;37.09;99082.44;6184561;23;20001;-66
2021/08/13 05:23:27;;;;;;;0.10;0.10;;;;;;;28.63;37.79;99078.00;6183957;23;20013;-65
2021/08/13 05:25:52;;;;;;;0.95;0.88;;;;;;;27.72;38.28;99080.63;6184813;23;20063;-65
2021/08/13 05:28:18;;;;;;;0.10;0.10;;;;;;;26.83;38.90;99082.22;6184595;23;20060;-66
2021/08/13 05:30:44;;;;;;;0.43;0.43;;;;;;;26.19;39.09;99081.03;6184218;23;20413;-66
2021/08/13 05:33:09;;;;;;;0.10;0.10;;;;;;;25.73;38.70;99088.09;6184583;23;20009;-66
2021/08/13 05:35:37;;;;;;;0.65;0.50;;;;;;;25.34;38.61;99081.44;6183779;23;20016;-65
2021/08/13 05:38:04;;;;;;;0.30;0.30;;;;;;;24.96;38.42;99071.53;6155149;23;20012;-67
2021/08/13 05:40:30;;;;;;;0.30;0.30;;;;;;;24.72;38.01;99080.34;6182634;23;20013;-66
2021/08/13 05:42:56;;;;;;;0.38;0.38;;;;;;;24.53;37.62;99077.75;6183545;23;20051;-66
2021/08/13 05:45:23;;;;;;;0.38;0.38;;;;;;;24.29;37.39;99064.88;6184121;23;20009;-67
2021/08/13 05:47:48;;;;;;;3.05;0.32;;;;;;;24.08;37.26;99070.16;6184350;23;20020;-66
2021/08/13 05:50:16;;;;;;;0.10;0.10;;;;;;;23.89;37.45;99066.72;6183968;23;20362;-66
2021/08/13 05:52:43;;;;;;;0.10;0.10;;;;;;;23.75;36.81;99052.72;6184080;23;20092;-66
2021/08/13 05:55:10;;;;;;;0.45;0.10;;;;;;;23.58;36.78;99054.22;6184624;23;20060;-66
2021/08/13 05:57:36;;;;;;;0.10;0.10;;;;;;;23.44;36.84;99057.06;6183749;23;20095;-65
2021/08/13 06:00:02;;;;;;;0.10;0.10;;;;;;;23.39;36.42;99050.72;6184339;23;20055;-66
2021/08/13 06:19:56;;;;;;;0.32;0.20;;;;;;;22.98;36.01;99043.19;6182880;23;20401;-66
2021/08/13 06:22:21;;;;;;;0.35;0.17;;;;;;;22.97;35.55;99047.97;6183972;23;20025;-65
2021/08/13 06:24:47;;;;;;;0.28;0.28;;;;;;;22.89;35.60;99035.53;6183830;23;20093;-65
2021/08/13 06:27:13;;;;;;;0.55;0.10;;;;;;;22.77;35.71;99045.56;6183869;23;20480;-65
2021/08/13 06:29:38;;;;;;;0.10;0.10;;;;;;;22.74;35.94;99039.44;6184151;23;20096;-66
2021/08/13 06:32:04;;;;;;;0.22;0.22;;;;;;;22.77;35.81;99032.41;6183735;23;20013;-66
2021/08/13 06:34:30;;;;;;;0.10;0.10;;;;;;;22.79;35.36;99040.47;6183261;23;20008;-67
2021/08/13 06:36:56;;;;;;;0.63;0.22;;;;;;;22.74;35.48;99033.00;6183426;23;20031;-66
2021/08/13 06:39:22;;;;;;;0.10;0.10;;;;;;;22.72;35.64;99040.91;6157600;23;20075;-66
2021/08/13 06:41:48;;;;;;;0.35;0.20;;;;;;;22.72;35.24;99027.72;6183367;23;20009;-66
2021/08/13 06:44:14;;;;;;;0.20;0.20;;;;;;;22.71;35.14;99026.06;6183725;23;20083;-66
2021/08/13 06:46:41;;;;;;;0.43;0.43;;;;;;;22.67;35.34;99024.19;6183467;23;20361;-65
2021/08/13 06:49:07;;;;;;;0.13;0.13;;;;;;;22.61;35.34;99023.47;6183347;23;20350;-68
2021/08/13 06:51:33;;;;;;;0.22;0.22;;;;;;;22.58;35.73;99032.47;6183831;23;20009;-68
2021/08/13 06:53:58;;;;;;;0.30;0.30;;;;;;;22.57;35.49;99020.47;6183575;23;20013;-66
2021/08/13 06:56:24;;;;;;;0.30;0.25;;;;;;;22.59;35.54;99017.34;6183747;23;20036;-66
2021/08/13 06:58:50;;;;;;;0.10;0.10;;;;;;;22.64;35.41;99020.03;6182136;23;20075;-66
2021/08/13 07:01:16;;;;;;;0.10;0.10;;;;;;;22.68;35.00;99021.09;6183479;23;20163;-66
2021/08/13 07:03:42;;;;;;;0.10;0.10;;;;;;;22.71;34.83;99014.03;6183474;23;20346;-66
2021/08/13 07:06:08;;;;;;;0.10;0.10;;;;;;;22.69;34.98;99008.75;6182980;23;20405;-65
2021/08/13 07:08:33;;;;;;;0.10;0.10;;;;;;;22.67;35.08;99022.25;6183266;23;20016;-65
2021/08/13 07:10:59;;;;;;;0.15;0.15;;;;;;;22.65;35.23;99012.50;6183522;23;20013;-67
2021/08/13 07:13:25;;;;;;;0.10;0.10;;;;;;;22.64;34.82;99017.25;6183215;23;20483;-66
2021/08/13 07:15:51;;;;;;;0.65;0.17;;;;;;;22.67;34.96;99021.41;6183524;23;20013;-67
2021/08/13 07:18:16;;;;;;;0.10;0.10;;;;;;;22.67;34.94;99013.84;6183418;23;20009;-66
2021/08/13 07:20:42;;;;;;;0.10;0.10;;;;;;;22.66;34.69;99014.13;6183152;23;20088;-66
2021/08/13 07:23:08;;;;;;;0.10;0.10;;;;;;;22.62;34.63;99007.53;6183207;23;20021;-67
2021/08/13 07:25:33;;;;;;;0.28;0.20;;;;;;;22.61;34.97;99006.66;6183033;23;20013;-69
2021/08/13 07:27:59;;;;;;;0.10;0.10;;;;;;;22.55;35.16;99005.13;6183666;23;20386;-66
2021/08/13 07:30:25;;;;;;;18.30;0.52;;;;;;;22.54;35.22;99006.25;6182984;23;20488;-68
2021/08/13 07:32:51;;;;;;;0.10;0.10;;;;;;;22.60;34.79;99009.78;6183495;23;20009;-67
2021/08/13 07:35:16;;;;;;;0.10;0.10;;;;;;;22.61;34.70;98998.28;6182785;23;20107;-67
2021/08/13 07:37:42;;;;;;;0.17;0.17;;;;;;;22.59;34.83;98997.78;6183441;23;20044;-67
2021/08/13 07:40:08;;;;;;;0.20;0.20;;;;;;;22.59;34.98;98983.78;6182951;23;20468;-67
2021/08/13 07:42:36;;;;;;;0.20;0.20;;;;;;;22.60;34.94;98987.41;6182691;23;20025;-67
2021/08/13 07:45:03;;;;;;;0.75;0.30;;;;;;;22.58;35.06;98990.50;6183695;23;20037;-66
2021/08/13 07:47:28;;;;;;;0.20;0.20;;;;;;;22.53;35.03;98988.66;6184935;23;20342;-65
2021/08/13 07:49:54;;;;;;;0.15;0.15;;;;;;;22.53;34.70;98993.41;6183885;23;20016;-67
2021/08/13 07:52:20;;;;;;;0.63;0.63;;;;;;;22.57;34.75;98994.47;6183634;23;20008;-67
2021/08/13 07:58:49;;;;;;;0.10;0.10;;;;;;;22.56;34.84;98976.00;6178696;23;20039;-66
2021/08/13 08:01:55;;;;;;;0.10;0.10;;;;;;;22.58;35.07;98962.53;6176781;23;20350;-65
2021/08/13 08:05:00;;;;;;;0.35;0.30;;;;;;;22.58;34.99;98959.72;6182234;23;20423;-67
2021/08/13 08:08:05;;;;;;;0.55;0.55;;;;;;;22.57;35.01;98961.69;6182860;23;20020;-66
2021/08/13 08:11:11;;;;;;;0.28;0.28;;;;;;;22.54;35.19;98959.53;6181730;23;20012;-67
2021/08/13 08:14:16;;;;;;;0.10;0.10;;;;;;;22.52;35.01;98964.59;6182616;23;20004;-67
2021/08/13 08:17:22;;;;;;;0.10;0.10;;;;;;;22.53;35.01;98962.63;6155801;23;20104;-65
2021/08/13 08:20:42;;;;;;;0.30;0.30;;;;;;;22.53;35.08;98959.84;6178275;23;20110;-66
2021/08/13 08:23:48;;;;;;;0.10;0.10;;;;;;;22.55;35.08;98955.56;6177996;23;20361;-67
2021/08/13 08:26:53;;;;;;;0.25;0.25;;;;;;;22.54;35.04;98962.31;6182862;23;20043;-65
2021/08/13 08:29:59;;;;;;;0.10;0.10;;;;;;;22.56;35.02;98954.44;6155684;23;20020;-67
2021/08/13 08:33:04;;;;;;;0.10;0.10;;;;;;;22.58;34.84;98948.53;6182339;23;20084;-67
2021/08/13 08:36:10;;;;;;;0.10;0.10;;;;;;;22.60;35.16;98957.47;6181813;23;20009;-67
2021/08/13 08:39:15;;;;;;;0.32;0.32;;;;;;;22.66;34.98;98942.22;6155793;23;20013;-67
2021/08/13 13:17:46;;;;;;;0.10;0.10;;;;;;;24.01;34.74;98710.78;6178110;23;20028;-69
2021/08/13 13:20:13;;;;;;;;;;;;;;;23.97;34.60;98704.22;6125034;23;21203;-64
2021/08/13 13:22:41;;;;;;;2.63;0.75;;;;;;;23.93;34.57;98708.81;6154018;23;19971;-66
2021/08/13 13:25:19;;;;;;;0.10;0.10;;;;;;;23.90;34.93;98715.88;6153979;23;20013;-68
2021/08/13 13:27:54;;;;;;;0.10;0.10;;;;;;;23.88;34.77;98711.75;6154321;23;20060;-64
2021/08/13 13:30:29;;;;;;;0.30;0.30;;;;;;;23.87;34.81;98708.13;6154273;23;20529;-68
2021/08/13 13:33:02;;;;;;;0.10;0.10;;;;;;;23.85;35.04;98710.41;6154362;23;20461;-63
2021/08/13 13:35:29;;;;;;;0.10;0.10;;;;;;;23.84;34.96;98714.38;6153695;23;20013;-64
2021/08/13 13:37:57;;;;;;;0.20;0.20;;;;;;;23.84;34.94;98699.53;6152501;23;20262;-66
2021/08/13 13:40:23;;;;;;;0.32;0.32;;;;;;;23.81;34.65;98695.38;6153648;23;20029;-67
2021/08/13 13:42:48;;;;;;;0.20;0.13;;;;;;;23.78;34.70;98702.47;6155379;23;20056;-64
2021/08/13 13:45:17;;;;;;;0.40;0.22;;;;;;;23.77;34.96;98691.59;6155628;23;20020;-65
2021/08/13 13:47:43;;;;;;;0.10;0.10;;;;;;;23.76;34.69;98693.56;6155483;23;20013;-68
2021/08/13 13:50:10;;;;;;;0.00;0.00;;;;;;;23.74;34.96;98693.03;6156108;23;20453;-70
2021/08/13 13:52:35;;;;;;;0.15;0.15;;;;;;;23.74;35.17;98695.03;6155886;23;20013;-68
2021/08/13 13:55:01;;;;;;;0.10;0.10;;;;;;;23.73;35.07;98690.56;6155882;23;20097;-65
2021/08/13 13:57:27;;;;;;;0.20;0.20;;;;;;;23.70;35.21;98692.03;6155919;23;20012;-68
2021/08/13 13:59:53;;;;;;;0.43;0.43;;;;;;;23.67;35.22;98689.88;6157645;23;20017;-66
2021/08/13 14:02:19;;;;;;;0.10;0.10;;;;;;;23.64;35.01;98684.94;6155690;23;20029;-66
2021/08/13 14:04:44;;;;;;;0.17;0.17;;;;;;;23.59;35.29;98683.13;6155445;23;20041;-67
2021/08/13 14:07:10;;;;;;;0.32;0.32;;;;;;;23.57;35.00;98687.38;6155365;23;20466;-68
2021/08/13 14:09:36;;;;;;;0.13;0.13;;;;;;;23.53;35.28;98683.59;6154861;23;20014;-66
2021/08/13 14:12:02;;;;;;;0.20;0.20;;;;;;;23.49;35.40;98685.41;6155959;23;20010;-66
2021/08/13 14:14:28;;;;;;;0.20;0.17;;;;;;;23.43;35.17;98684.72;6155545;23;20370;-67
2021/08/13 14:16:54;;;;;;;0.10;0.10;;;;;;;23.37;35.17;98689.63;6155965;23;20009;-70
2021/08/13 14:19:19;;;;;;;0.10;0.10;;;;;;;23.32;35.40;98683.34;6175971;23;20021;-66
2021/08/13 14:21:45;;;;;;;0.10;0.10;;;;;;;23.25;35.63;98679.03;6185612;23;20481;-66
2021/08/13 14:24:11;;;;;;;0.10;0.10;;;;;;;23.20;35.72;98675.53;6185156;23;20017;-67
2021/08/13 14:26:37;;;;;;;0.13;0.13;;;;;;;23.15;35.55;98675.69;6185406;23;20016;-67
2021/08/13 14:29:03;;;;;;;0.10;0.10;;;;;;;23.08;35.76;98671.31;6185674;23;20009;-68
2021/08/13 14:31:29;;;;;;;0.32;0.30;;;;;;;23.03;35.84;98677.06;6201301;23;20040;-66
2021/08/13 14:33:55;;;;;;;0.32;0.32;;;;;;;22.96;35.89;98667.47;6193225;23;20009;-69
2021/08/13 14:36:21;;;;;;;0.40;0.40;;;;;;;22.89;36.12;98676.31;6184609;23;20024;-68
2021/08/13 14:38:47;;;;;;;0.13;0.13;;;;;;;22.83;35.88;98674.81;6185671;23;20040;-70
2021/08/13 14:41:12;;;;;;;0.20;0.20;;;;;;;22.75;36.05;98673.63;6185413;23;20346;-67
2021/08/13 14:43:38;;;;;;;0.20;0.20;;;;;;;22.69;36.21;98670.13;6185184;23;20099;-70
2021/08/13 14:46:05;;;;;;;0.10;0.10;;;;;;;22.65;36.36;98666.28;6185208;23;20067;-68
2021/08/13 14:48:31;;;;;;;0.10;0.10;;;;;;;22.63;36.38;98663.00;6184642;23;20020;-67
2021/08/13 14:50:59;;;;;;;0.10;0.10;;;;;;;22.68;36.39;98664.84;6185350;23;20345;-66
2021/08/13 14:53:25;;;;;;;0.20;0.10;;;;;;;22.68;35.96;98667.63;6184963;23;20394;-68
2021/08/13 14:55:50;;;;;;;0.20;0.20;;;;;;;22.59;36.31;98672.34;6185093;23;20059;-66
2021/08/13 14:58:16;;;;;;;0.32;0.30;;;;;;;22.48;36.43;98668.97;6184156;23;20056;-67
2021/08/13 15:00:42;;;;;;;0.10;0.10;;;;;;;22.35;36.54;98663.13;6185059;23;20446;-69
2021/08/13 15:03:08;;;;;;;0.10;0.10;;;;;;;22.26;36.82;98665.00;6184757;23;20012;-68
2021/08/13 15:05:33;;;;;;;0.10;0.10;;;;;;;22.20;36.71;98671.81;6184648;23;20013;-68
2021/08/13 15:07:59;;;;;;;0.20;0.20;;;;;;;22.12;37.17;98669.78;6184774;23;20012;-66
2021/08/13 15:10:25;;;;;;;0.10;0.10;;;;;;;22.11;36.73;98668.13;6158346;23;20354;-68
2021/08/13 15:12:51;;;;;;;0.32;0.20;;;;;;;22.02;37.29;98656.88;6185198;23;20012;-71
2021/08/13 15:15:17;;;;;;;0.10;0.10;;;;;;;21.90;37.16;98657.41;6158667;23;20096;-67
2021/08/13 15:17:42;;;;;;;0.30;0.30;;;;;;;21.80;37.65;98655.66;6184797;23;20009;-65
2021/08/13 15:20:09;;;;;;;0.20;0.20;;;;;;;21.69;37.83;98652.28;6158733;23;20397;-68
2021/08/13 15:22:35;;;;;;;0.25;0.25;;;;;;;21.60;37.79;98647.72;6184998;23;20013;-68
2021/08/13 15:25:01;;;;;;;0.22;0.22;;;;;;;21.50;38.00;98644.00;6184293;23;20427;-66
2021/08/13 15:27:27;;;;;;;0.20;0.20;;;;;;;21.38;38.09;98652.06;6184672;23;20087;-68
2021/08/13 15:29:52;;;;;;;0.20;0.20;;;;;;;21.32;38.29;98654.13;6184822;23;20438;-68
2021/08/13 15:32:18;;;;;;;0.50;0.50;;;;;;;21.25;38.19;98653.72;6185129;23;20008;-69
2021/08/13 15:34:45;;;;;;;0.17;0.17;;;;;;;21.16;38.42;98655.56;6184222;23;20434;-68
2021/08/13 15:37:11;;;;;;;0.22;0.22;;;;;;;21.05;38.86;98654.09;6184413;23;20008;-70
2021/08/13 15:39:37;;;;;;;0.10;0.10;;;;;;;20.97;38.83;98664.03;6184799;23;20020;-68
2021/08/13 15:42:03;;;;;;;0.10;0.10;;;;;;;20.88;38.82;98655.53;6184569;23;20441;-66
2021/08/13 15:44:28;;;;;;;0.47;0.32;;;;;;;20.79;38.77;98660.97;6184122;23;20021;-67
2021/08/13 15:46:54;;;;;;;0.10;0.10;;;;;;;20.73;38.97;98664.16;6184624;23;20016;-69
2021/08/13 15:49:20;;;;;;;2.10;1.17;;;;;;;20.65;39.13;98658.09;6184364;23;20009;-66
2021/08/13 15:51:46;;;;;;;0.10;0.10;;;;;;;20.60;39.22;98649.84;6184669;23;20013;-70
2021/08/13 15:54:12;;;;;;;0.28;0.28;;;;;;;20.56;39.09;98659.94;6184574;23;20009;-69
2021/08/13 15:56:38;;;;;;;0.20;0.20;;;;;;;20.47;39.27;98657.03;6184979;23;20009;-69
2021/08/13 15:59:04;;;;;;;0.13;0.13;;;;;;;20.43;39.31;98666.31;6184388;23;20036;-71
2021/08/13 16:01:31;;;;;;;0.40;0.40;;;;;;;20.36;39.54;98660.28;6184829;23;20016;-66
2021/08/13 16:03:57;;;;;;;0.20;0.20;;;;;;;20.28;39.58;98659.84;6185125;23;20017;-70
2021/08/13 16:06:23;;;;;;;0.25;0.25;;;;;;;20.21;39.68;98672.50;6180928;23;20009;-72
2021/08/13 16:08:49;;;;;;;1.08;0.40;;;;;;;20.13;40.15;98665.66;6182671;23;20013;-68
2021/08/13 16:11:15;;;;;;;0.13;0.13;;;;;;;20.05;40.38;98666.31;6183618;23;20047;-67
2021/08/13 16:13:41;;;;;;;0.15;0.15;;;;;;;19.98;40.27;98660.28;6182589;23;20453;-69
2021/08/13 16:16:08;;;;;;;0.30;0.30;;;;;;;19.89;40.63;98655.41;6183011;23;20016;-66
2021/08/13 16:18:34;;;;;;;0.10;0.10;;;;;;;19.85;40.54;98648.78;6181811;23;20044;-66
2021/08/13 16:21:03;;;;;;;0.10;0.10;;;;;;;19.83;40.83;98648.25;6183053;23;20009;-67
2021/08/13 16:23:29;;;;;;;0.32;0.32;;;;;;;19.77;40.94;98646.63;6182799;23;20024;-68
2021/08/13 16:25:55;;;;;;;0.22;0.22;;;;;;;19.71;41.10;98650.59;6183591;23;20200;-65
2021/08/13 16:28:21;;;;;;;0.15;0.15;;;;;;;19.65;41.18;98655.41;6183329;23;20009;-66
2021/08/13 16:30:47;;;;;;;1.95;0.40;;;;;;;19.59;41.20;98648.25;6190342;23;20012;-65
2021/08/13 16:33:13;;;;;;;0.28;0.28;;;;;;;19.53;41.36;98644.69;6175605;23;20381;-66
2021/08/13 16:35:38;;;;;;;1.60;0.63;;;;;;;19.51;41.85;98658.09;6186547;23;20028;-64
2021/08/13 16:38:09;;;;;;;0.20;0.20;;;;;;;19.46;41.63;98647.03;6204549;23;20464;-67